createdAt,value
2023-05-04T00:00:58.402Z,68.53
2023-05-04T00:03:24.908Z,68.15
2023-05-04T00:05:51.552Z,67.97
2023-05-04T00:08:18.038Z,68.37
2023-05-04T00:10:44.388Z,68.28
2023-05-04T00:13:10.907Z,68.75
2023-05-04T00:15:37.694Z,68.92
2023-05-04T00:18:04.438Z,68.46
2023-05-04T00:20:30.913Z,69.03
2023-05-04T00:22:57.265Z,68.66
2023-05-04T00:25:23.617Z,68.36
2023-05-04T00:27:50.115Z,69.06
2023-05-04T00:30:16.546Z,69.49
2023-05-04T00:32:42.989Z,69.37
2023-05-04T00:35:09.542Z,69.30
2023-05-04T00:37:35.929Z,70.33
2023-05-04T00:40:02.560Z,69.86
2023-05-04T00:42:29.057Z,69.71
2023-05-04T00:44:55.424Z,70.16
2023-05-04T00:47:22.541Z,70.16
2023-05-04T00:49:49.242Z,69.84
2023-05-04T00:52:16.941Z,70.39
2023-05-04T00:54:46.388Z,70.51
2023-05-04T00:57:12.943Z,69.81
2023-05-04T00:59:39.429Z,69.26
2023-05-04T01:02:05.881Z,70.47
2023-05-04T01:04:32.346Z,70.37
2023-05-04T01:07:27.813Z,70.40
2023-05-04T01:10:02.064Z,69.53
2023-05-04T01:12:39.105Z,69.93
2023-05-04T01:15:06.298Z,70.26
2023-05-04T01:17:32.753Z,70.85
2023-05-04T01:19:59.426Z,71.14
2023-05-04T01:22:26.458Z,71.07
2023-05-04T01:24:52.913Z,70.24
2023-05-04T01:27:26.548Z,70.82
2023-05-04T01:30:08.841Z,70.05
2023-05-04T01:32:37.699Z,70.54
2023-05-04T01:35:04.868Z,70.98
2023-05-04T01:37:31.228Z,70.73
2023-05-04T01:39:57.583Z,71.36
2023-05-04T01:42:23.994Z,71.66
2023-05-04T01:44:50.464Z,71.85
2023-05-04T01:47:16.901Z,72.87
2023-05-04T01:49:43.289Z,73.04
2023-05-04T01:52:10.154Z,73.75
2023-05-04T01:54:36.603Z,73.27
2023-05-04T01:57:03.097Z,72.85
2023-05-04T01:59:30.247Z,73.47
2023-05-04T02:01:56.633Z,72.26
2023-05-04T02:04:23.164Z,72.88
2023-05-04T02:06:49.568Z,72.66
2023-05-04T02:09:16.535Z,72.53
2023-05-04T02:11:42.982Z,72.02
2023-05-04T02:14:10.020Z,73.35
2023-05-04T02:16:36.498Z,73.04
2023-05-04T02:19:02.966Z,73.47
2023-05-04T02:21:29.705Z,74.32
2023-05-04T02:23:56.071Z,73.50
2023-05-04T02:26:22.525Z,72.72
2023-05-04T02:28:48.952Z,73.34
2023-05-04T02:31:15.355Z,73.08
2023-05-04T02:33:41.751Z,73.27
2023-05-04T02:36:08.337Z,73.25
2023-05-04T02:38:37.569Z,74.17
2023-05-04T02:41:03.945Z,74.21
2023-05-04T02:43:30.655Z,74.28
2023-05-04T02:45:57.138Z,74.95
2023-05-04T02:48:24.934Z,74.33
2023-05-04T02:50:51.834Z,74.78
2023-05-04T02:53:18.303Z,74.04
2023-05-04T02:55:44.656Z,74.46
2023-05-04T02:58:11.374Z,74.33
2023-05-04T03:00:37.728Z,74.22
2023-05-04T03:03:04.261Z,74.36
2023-05-04T03:05:30.657Z,74.44
2023-05-04T03:07:57.057Z,74.67
2023-05-04T03:10:23.456Z,74.31
2023-05-04T03:12:49.832Z,74.05
2023-05-04T03:15:16.626Z,74.14
2023-05-04T03:17:43.394Z,74.63
2023-05-04T03:20:10.278Z,74.41
2023-05-04T03:22:36.635Z,74.28
2023-05-04T03:25:02.996Z,74.90
2023-05-04T03:27:29.343Z,74.81
2023-05-04T03:29:55.727Z,74.56
2023-05-04T03:32:22.076Z,73.92
2023-05-04T03:34:48.412Z,74.21
2023-05-04T03:37:15.196Z,74.44
2023-05-04T03:39:41.682Z,74.81
2023-05-04T03:42:08.096Z,74.43
2023-05-04T03:44:34.483Z,74.75
2023-05-04T03:47:00.829Z,74.99
2023-05-04T03:49:27.341Z,74.59
2023-05-04T03:51:53.713Z,74.98
2023-05-04T03:54:20.169Z,75.26
2023-05-04T03:56:46.531Z,75.26
2023-05-04T03:59:12.901Z,74.78
2023-05-04T04:01:39.311Z,74.99
2023-05-04T04:04:06.078Z,74.75
2023-05-04T04:06:32.509Z,74.85
2023-05-04T04:08:58.850Z,74.18
2023-05-04T04:11:26.364Z,74.36
2023-05-04T04:13:52.904Z,74.32
2023-05-04T04:16:21.192Z,74.25
2023-05-04T04:18:48.009Z,74.05
2023-05-04T04:21:14.471Z,73.61
2023-05-04T04:23:40.804Z,73.74
2023-05-04T04:26:07.171Z,73.89
2023-05-04T04:28:34.179Z,73.98
2023-05-04T04:31:00.871Z,73.68
2023-05-04T04:33:27.331Z,74.11
2023-05-04T04:35:54.016Z,73.72
2023-05-04T04:38:20.440Z,73.82
2023-05-04T04:40:46.778Z,73.81
2023-05-04T04:43:14.189Z,73.61
2023-05-04T04:45:41.266Z,72.93
2023-05-04T04:48:07.657Z,73.14
2023-05-04T04:50:34.079Z,73.13
2023-05-04T04:53:00.516Z,72.76
2023-05-04T04:55:26.862Z,72.13
2023-05-04T04:57:53.310Z,72.03
2023-05-04T05:00:19.740Z,71.67
2023-05-04T05:02:46.400Z,71.95
2023-05-04T05:05:13.043Z,71.06
2023-05-04T05:07:39.562Z,71.52
2023-05-04T05:10:06.825Z,71.85
2023-05-04T05:12:33.435Z,72.03
2023-05-04T05:14:59.826Z,71.89
2023-05-04T05:17:26.360Z,71.35
2023-05-04T05:19:52.782Z,71.20
2023-05-04T05:22:19.136Z,71.74
2023-05-04T05:24:45.830Z,71.46
2023-05-04T05:27:12.194Z,70.91
2023-05-04T05:29:38.616Z,70.64
2023-05-04T05:32:05.263Z,70.57
2023-05-04T05:34:31.665Z,70.55
2023-05-04T05:36:58.278Z,70.55
2023-05-04T05:39:24.662Z,70.14
2023-05-04T05:41:51.329Z,70.11
2023-05-04T05:44:17.690Z,69.95
2023-05-04T05:46:44.204Z,69.53
2023-05-04T05:49:11.442Z,69.33
2023-05-04T05:51:37.954Z,68.92
2023-05-04T05:54:04.489Z,69.07
2023-05-04T05:56:30.865Z,68.86
2023-05-04T05:58:57.367Z,68.31
2023-05-04T06:01:24.259Z,69.47
2023-05-04T06:03:50.964Z,68.13
2023-05-04T06:06:17.407Z,67.89
2023-05-04T06:08:43.769Z,67.65
2023-05-04T06:11:10.207Z,67.11
2023-05-04T06:13:36.556Z,67.13
2023-05-04T06:16:03.148Z,67.72
2023-05-04T06:18:29.854Z,66.37
2023-05-04T06:20:59.999Z,68.43
2023-05-04T06:23:28.273Z,68.00
2023-05-04T06:25:54.684Z,65.68
2023-05-04T06:28:21.255Z,65.13
2023-05-04T06:30:48.389Z,64.86
2023-05-04T06:33:14.770Z,63.93
2023-05-04T06:35:41.305Z,64.03
2023-05-04T06:38:07.664Z,64.13
2023-05-04T06:40:34.320Z,63.96
2023-05-04T06:43:01.340Z,63.12
2023-05-04T06:45:27.813Z,62.47
2023-05-04T06:47:54.252Z,61.97
2023-05-04T06:50:20.778Z,61.52
2023-05-04T06:52:47.136Z,61.75
2023-05-04T06:55:14.584Z,61.63
2023-05-04T06:57:40.995Z,61.47
2023-05-04T07:00:08.348Z,61.38
2023-05-04T07:02:34.799Z,61.16
2023-05-04T07:05:02.105Z,61.22
2023-05-04T07:07:28.496Z,61.39
2023-05-04T07:09:55.176Z,61.38
2023-05-04T07:12:21.595Z,61.41
2023-05-04T07:14:48.021Z,60.76
2023-05-04T07:17:14.534Z,60.56
2023-05-04T07:19:41.483Z,59.92
2023-05-04T07:22:07.884Z,60.25
2023-05-04T07:24:34.362Z,59.94
2023-05-04T07:27:03.708Z,60.04
2023-05-04T07:29:30.041Z,60.26
2023-05-04T07:31:56.516Z,59.75
2023-05-04T07:34:30.544Z,60.51
2023-05-04T07:37:00.878Z,59.57
2023-05-04T07:39:27.279Z,59.88
2023-05-04T07:41:54.337Z,59.31
2023-05-04T07:44:20.848Z,59.00
2023-05-04T07:46:47.223Z,58.72
2023-05-04T07:49:13.592Z,58.43
2023-05-04T07:51:40.004Z,58.54
2023-05-04T07:54:06.364Z,58.36
2023-05-04T07:56:32.728Z,57.96
2023-05-04T07:58:59.104Z,57.73
2023-05-04T08:01:26.141Z,56.94
2023-05-04T08:03:52.649Z,56.42
2023-05-04T08:06:23.866Z,56.46
2023-05-04T08:08:52.569Z,55.94
2023-05-04T08:11:20.865Z,55.50
2023-05-04T08:13:51.065Z,54.85
2023-05-04T08:16:17.702Z,54.19
2023-05-04T08:18:44.055Z,53.99
2023-05-04T08:21:10.587Z,53.31
2023-05-04T08:23:36.986Z,52.71
2023-05-04T08:26:06.132Z,52.56
2023-05-04T08:28:38.153Z,52.16
2023-05-04T08:31:04.563Z,52.11
2023-05-04T08:33:31.907Z,51.89
2023-05-04T08:35:58.409Z,51.15
2023-05-04T08:38:24.783Z,51.43
2023-05-04T08:40:51.193Z,51.12
2023-05-04T08:43:17.618Z,51.29
2023-05-04T08:45:45.216Z,51.31
2023-05-04T08:48:11.673Z,50.82
2023-05-04T08:50:38.312Z,51.10
2023-05-04T08:53:12.022Z,50.40
2023-05-04T08:55:39.420Z,49.80
2023-05-04T08:58:09.958Z,49.92
2023-05-04T09:00:37.986Z,50.10
2023-05-04T09:03:05.973Z,49.87
2023-05-04T09:05:32.680Z,50.05
2023-05-04T09:07:59.167Z,49.80
2023-05-04T09:10:26.848Z,49.73
2023-05-04T09:12:56.072Z,49.28
2023-05-04T09:15:23.576Z,49.44
2023-05-04T09:18:02.322Z,49.54
2023-05-04T09:20:30.624Z,49.35
2023-05-04T09:23:07.987Z,48.49
2023-05-04T09:25:50.889Z,48.27
2023-05-04T09:28:18.742Z,47.00
2023-05-04T09:30:48.276Z,46.45
2023-05-04T09:33:25.744Z,46.28
2023-05-04T09:35:52.098Z,45.94
2023-05-04T09:38:29.559Z,45.76
2023-05-04T09:40:56.502Z,45.03
2023-05-04T09:43:24.463Z,44.93
2023-05-04T09:45:51.436Z,44.56
2023-05-04T09:48:25.676Z,45.53
2023-05-04T09:50:53.706Z,45.64
2023-05-04T09:53:23.053Z,44.30
2023-05-04T09:55:55.969Z,44.63
2023-05-04T09:58:23.435Z,43.41
2023-05-04T10:00:49.975Z,43.90
2023-05-04T10:03:16.633Z,43.49
2023-05-04T10:05:43.058Z,43.62
2023-05-04T10:08:09.868Z,43.37
2023-05-04T10:10:38.930Z,43.88
2023-05-04T10:13:05.541Z,42.95
2023-05-04T10:15:32.878Z,41.97
2023-05-04T10:18:15.234Z,41.70
2023-05-04T10:21:06.008Z,42.19
2023-05-04T10:23:44.835Z,43.10
2023-05-04T10:26:40.481Z,43.55
2023-05-04T10:29:24.989Z,41.68
2023-05-04T10:31:53.264Z,41.26
2023-05-04T10:34:35.273Z,41.34
2023-05-04T10:37:03.042Z,41.32
2023-05-04T10:39:31.468Z,42.06
2023-05-04T10:42:06.521Z,41.32
2023-05-04T10:44:35.168Z,41.26
2023-05-04T10:47:05.931Z,41.42
2023-05-04T10:49:34.627Z,41.28
2023-05-04T10:52:12.474Z,42.24
2023-05-04T10:54:40.874Z,42.72
2023-05-04T10:57:14.705Z,41.50
2023-05-04T10:59:41.705Z,41.20
2023-05-04T11:02:08.507Z,41.59
2023-05-04T11:04:36.235Z,41.37
2023-05-04T11:07:05.534Z,41.15
2023-05-04T11:09:39.580Z,41.49
2023-05-04T11:12:07.356Z,41.42
2023-05-04T11:14:37.749Z,41.52
2023-05-04T11:17:23.980Z,40.84
2023-05-04T11:19:53.553Z,39.81
2023-05-04T11:22:20.209Z,40.19
2023-05-04T11:24:48.637Z,39.51
2023-05-04T11:27:23.259Z,40.60
2023-05-04T11:30:00.440Z,39.71
2023-05-04T11:32:40.741Z,39.84
2023-05-04T11:35:18.791Z,39.97
2023-05-04T11:37:46.629Z,40.87
2023-05-04T11:40:15.118Z,39.89
2023-05-04T11:42:42.861Z,39.16
2023-05-04T11:45:09.658Z,39.21
2023-05-04T11:47:37.806Z,39.71
2023-05-04T11:50:06.439Z,39.65
2023-05-04T11:52:36.187Z,38.98
2023-05-04T11:55:03.287Z,38.33
2023-05-04T11:57:31.753Z,37.74
2023-05-04T11:59:58.153Z,38.67
2023-05-04T12:02:25.792Z,38.67
2023-05-04T12:04:52.688Z,39.12
2023-05-04T12:07:19.102Z,38.07
2023-05-04T12:09:46.914Z,38.52
2023-05-04T12:12:16.273Z,38.59
2023-05-04T12:14:51.834Z,38.26
2023-05-04T12:17:20.263Z,38.49
2023-05-04T12:19:57.336Z,37.74
2023-05-04T12:22:32.826Z,37.73
2023-05-04T12:25:00.317Z,38.07
2023-05-04T12:27:27.583Z,37.49
2023-05-04T12:29:54.227Z,37.84
2023-05-04T12:32:21.670Z,38.35
2023-05-04T12:34:48.044Z,36.57
2023-05-04T12:37:14.383Z,36.41
2023-05-04T12:39:40.752Z,37.44
2023-05-04T12:42:07.142Z,36.44
2023-05-04T12:44:34.670Z,35.75
2023-05-04T12:47:01.563Z,36.17
2023-05-04T12:49:27.948Z,36.50
2023-05-04T12:51:54.296Z,36.88
2023-05-04T12:54:21.098Z,36.72
2023-05-04T12:56:47.601Z,35.84
2023-05-04T12:59:14.028Z,36.08
2023-05-04T13:01:41.469Z,36.34
2023-05-04T13:04:07.988Z,36.23
2023-05-04T13:06:34.579Z,36.13
2023-05-04T13:09:03.877Z,35.35
2023-05-04T13:11:30.313Z,36.04
2023-05-04T13:13:56.689Z,35.68
2023-05-04T13:16:23.127Z,35.85
2023-05-04T13:18:49.668Z,34.62
2023-05-04T13:21:16.015Z,34.90
2023-05-04T13:23:42.540Z,34.72
2023-05-04T13:26:08.946Z,35.07
2023-05-04T13:28:37.203Z,34.60
2023-05-04T13:31:05.764Z,34.33
2023-05-04T13:33:33.015Z,35.07
2023-05-04T13:36:01.924Z,33.49
2023-05-04T13:38:28.409Z,33.30
2023-05-04T13:40:55.202Z,34.00
2023-05-04T13:43:22.516Z,33.81
2023-05-04T13:45:48.984Z,34.50
2023-05-04T13:48:15.406Z,33.68
2023-05-04T13:50:42.020Z,33.70
2023-05-04T13:53:10.916Z,33.06
2023-05-04T13:55:37.429Z,31.80
2023-05-04T13:58:04.028Z,32.89
2023-05-04T14:00:30.409Z,32.68
2023-05-04T14:02:57.104Z,31.77
2023-05-04T14:05:23.586Z,31.89
2023-05-04T14:07:51.629Z,32.08
2023-05-04T14:10:18.066Z,31.21
2023-05-04T14:12:44.685Z,30.44
2023-05-04T14:15:11.404Z,30.62
2023-05-04T14:17:39.485Z,30.99
2023-05-04T14:20:07.219Z,30.76
2023-05-04T14:22:35.070Z,31.08
2023-05-04T14:25:04.010Z,31.84
2023-05-04T14:27:34.383Z,31.29
2023-05-04T14:30:04.411Z,31.17
2023-05-04T14:32:30.830Z,31.28
2023-05-04T14:35:06.647Z,31.68
2023-05-04T14:37:36.230Z,31.60
2023-05-04T14:40:06.191Z,31.79
2023-05-04T14:42:33.119Z,31.54
2023-05-04T14:44:59.675Z,31.37
2023-05-04T14:47:27.437Z,31.01
2023-05-04T14:49:54.222Z,31.33
2023-05-04T14:52:20.748Z,31.25
2023-05-04T14:54:47.167Z,31.55
2023-05-04T14:57:13.524Z,30.61
2023-05-04T14:59:40.305Z,30.43
2023-05-04T15:02:08.085Z,30.98
2023-05-04T15:04:34.837Z,31.43
2023-05-04T15:07:01.301Z,31.21
2023-05-04T15:09:27.692Z,31.35
2023-05-04T15:11:54.044Z,31.13
2023-05-04T15:14:21.301Z,31.21
2023-05-04T15:16:47.681Z,31.24
2023-05-04T15:19:14.070Z,31.48
2023-05-04T15:21:41.565Z,31.09
2023-05-04T15:24:07.997Z,31.22
2023-05-04T15:26:34.583Z,30.86
2023-05-04T15:29:01.071Z,31.01
2023-05-04T15:31:27.546Z,30.42
2023-05-04T15:33:53.981Z,30.93
2023-05-04T15:36:20.435Z,30.54
2023-05-04T15:38:46.841Z,30.62
2023-05-04T15:41:14.159Z,30.98
2023-05-04T15:43:40.605Z,30.80
2023-05-04T15:46:07.029Z,30.75
2023-05-04T15:48:33.381Z,30.96
2023-05-04T15:50:59.891Z,30.87
2023-05-04T15:53:27.089Z,31.09
2023-05-04T15:55:53.469Z,31.25
2023-05-04T15:58:19.860Z,31.95
2023-05-04T16:00:49.674Z,31.74
2023-05-04T16:03:16.172Z,31.88
2023-05-04T16:05:43.392Z,31.98
2023-05-04T16:08:09.758Z,31.99
2023-05-04T16:10:36.194Z,32.15
2023-05-04T16:13:04.338Z,32.26
2023-05-04T16:15:31.086Z,32.45
2023-05-04T16:17:57.527Z,32.17
2023-05-04T16:20:24.086Z,32.15
2023-05-04T16:22:50.440Z,32.73
2023-05-04T16:25:16.824Z,32.75
2023-05-04T16:27:43.351Z,33.28
2023-05-04T16:30:10.337Z,33.61
2023-05-04T16:32:36.974Z,33.92
2023-05-04T16:35:03.797Z,34.77
2023-05-04T16:37:30.234Z,34.60
2023-05-04T16:39:56.673Z,35.15
2023-05-04T16:42:23.092Z,35.62
2023-05-04T16:44:49.441Z,35.92
2023-05-04T16:47:16.252Z,36.04
2023-05-04T16:49:42.672Z,36.44
2023-05-04T16:52:09.036Z,36.50
2023-05-04T16:54:35.746Z,37.10
2023-05-04T16:57:02.140Z,37.33
2023-05-04T16:59:29.253Z,37.70
2023-05-04T17:01:56.371Z,37.80
2023-05-04T17:04:25.119Z,38.09
2023-05-04T17:06:51.515Z,38.13
2023-05-04T17:09:17.868Z,38.05
2023-05-04T17:11:44.302Z,38.17
2023-05-04T17:14:10.935Z,38.42
2023-05-04T17:16:37.729Z,38.71
2023-05-04T17:19:04.182Z,39.02
2023-05-04T17:21:31.208Z,39.09
2023-05-04T17:23:57.569Z,39.33
2023-05-04T17:26:23.950Z,39.57
2023-05-04T17:28:51.581Z,40.00
2023-05-04T17:31:18.005Z,40.17
2023-05-04T17:33:44.540Z,39.88
2023-05-04T17:36:12.040Z,40.21
2023-05-04T17:38:39.547Z,40.47
2023-05-04T17:41:06.209Z,40.87
2023-05-04T17:43:33.906Z,40.56
2023-05-04T17:46:00.333Z,40.73
2023-05-04T17:48:27.799Z,41.02
2023-05-04T17:50:54.165Z,41.06
2023-05-04T17:53:20.812Z,41.26
2023-05-04T17:55:47.211Z,41.89
2023-05-04T17:58:13.637Z,42.50
2023-05-04T18:00:40.049Z,42.44
2023-05-04T18:03:06.777Z,42.75
2023-05-04T18:05:33.446Z,42.88
2023-05-04T18:07:59.790Z,43.24
2023-05-04T18:10:26.682Z,43.18
2023-05-04T18:12:53.202Z,43.34
2023-05-04T18:15:19.744Z,43.86
2023-05-04T18:17:46.206Z,43.94
2023-05-04T18:20:13.127Z,44.07
2023-05-04T18:22:39.585Z,44.25
2023-05-04T18:25:06.734Z,44.34
2023-05-04T18:27:34.284Z,44.75
2023-05-04T18:30:01.559Z,44.93
2023-05-04T18:32:27.955Z,45.08
2023-05-04T18:34:54.676Z,45.46
2023-05-04T18:37:21.593Z,45.72
2023-05-04T18:39:48.041Z,45.84
2023-05-04T18:42:14.516Z,46.01
2023-05-04T18:44:40.916Z,46.17
2023-05-04T18:47:08.061Z,46.54
2023-05-04T18:49:34.448Z,46.87
2023-05-04T18:52:01.646Z,47.16
2023-05-04T18:54:34.499Z,47.21
2023-05-04T18:57:01.056Z,47.87
2023-05-04T18:59:27.557Z,47.65
2023-05-04T19:01:53.946Z,47.96
2023-05-04T19:04:20.416Z,47.73
2023-05-04T19:06:47.713Z,48.07
2023-05-04T19:09:14.657Z,48.32
2023-05-04T19:11:41.355Z,48.42
2023-05-04T19:14:07.717Z,48.59
2023-05-04T19:16:34.111Z,48.52
2023-05-04T19:19:00.481Z,48.73
2023-05-04T19:21:27.729Z,49.03
2023-05-04T19:23:54.303Z,48.87
2023-05-04T19:26:20.721Z,49.25
2023-05-04T19:28:47.133Z,48.97
2023-05-04T19:31:13.949Z,49.46
2023-05-04T19:33:48.103Z,49.65
2023-05-04T19:36:16.033Z,50.00
2023-05-04T19:38:42.435Z,50.20
2023-05-04T19:41:08.858Z,50.65
2023-05-04T19:43:35.324Z,50.61
2023-05-04T19:46:02.502Z,50.75
2023-05-04T19:48:28.851Z,50.82
2023-05-04T19:50:55.969Z,50.92
2023-05-04T19:53:22.357Z,50.88
2023-05-04T19:55:48.733Z,50.67
2023-05-04T19:58:15.262Z,50.82
2023-05-04T20:00:41.664Z,50.56
2023-05-04T20:03:08.239Z,50.56
2023-05-04T20:05:34.960Z,50.55
2023-05-04T20:08:04.207Z,50.20
2023-05-04T20:10:31.496Z,50.09
2023-05-04T20:12:57.881Z,49.78
2023-05-04T20:15:24.477Z,49.34
2023-05-04T20:17:50.905Z,49.49
2023-05-04T20:20:20.214Z,49.27
2023-05-04T20:22:48.985Z,49.18
2023-05-04T20:25:15.536Z,49.24
2023-05-04T20:27:41.908Z,48.94
2023-05-04T20:30:08.629Z,49.19
2023-05-04T20:32:35.236Z,49.27
2023-05-04T20:35:01.760Z,49.37
2023-05-04T20:37:28.447Z,49.50
2023-05-04T20:39:55.296Z,49.34
2023-05-04T20:42:22.013Z,49.27
2023-05-04T20:44:48.448Z,49.34
2023-05-04T20:47:15.024Z,49.44
2023-05-04T20:49:41.501Z,49.42
2023-05-04T20:52:08.148Z,49.42
2023-05-04T20:54:34.515Z,49.56
2023-05-04T20:57:01.560Z,49.67
2023-05-04T20:59:28.082Z,50.35
2023-05-04T21:01:54.516Z,50.25
2023-05-04T21:04:21.029Z,50.76
2023-05-04T21:06:48.334Z,50.68
2023-05-04T21:09:15.448Z,50.73
2023-05-04T21:11:41.991Z,50.96
2023-05-04T21:14:08.435Z,51.11
2023-05-04T21:16:34.913Z,51.07
2023-05-04T21:19:01.443Z,51.14
2023-05-04T21:21:27.808Z,51.27
2023-05-04T21:23:54.191Z,51.27
2023-05-04T21:26:20.723Z,51.11
2023-05-04T21:28:47.383Z,51.64
2023-05-04T21:31:13.794Z,51.83
2023-05-04T21:33:40.362Z,52.13
2023-05-04T21:36:16.271Z,52.50
2023-05-04T21:38:43.050Z,52.99
2023-05-04T21:41:13.754Z,52.92
2023-05-04T21:43:43.234Z,53.11
2023-05-04T21:46:11.558Z,53.51
2023-05-04T21:48:38.336Z,53.47
2023-05-04T21:51:05.044Z,53.84
2023-05-04T21:53:33.562Z,54.04
2023-05-04T21:56:01.292Z,54.25
2023-05-04T21:58:28.688Z,54.53
2023-05-04T22:00:55.608Z,54.84
2023-05-04T22:03:22.108Z,54.61
2023-05-04T22:06:00.450Z,54.57
2023-05-04T22:08:28.021Z,54.33
2023-05-04T22:10:56.846Z,54.46
2023-05-04T22:13:23.308Z,54.56
2023-05-04T22:15:50.580Z,55.07
2023-05-04T22:18:17.756Z,56.57
2023-05-04T22:20:44.480Z,56.78
2023-05-04T22:23:11.174Z,56.05
2023-05-04T22:25:38.019Z,56.12
2023-05-04T22:28:04.803Z,57.02
2023-05-04T22:30:31.370Z,57.21
2023-05-04T22:32:58.000Z,57.59
2023-05-04T22:35:24.594Z,57.75
2023-05-04T22:37:51.265Z,57.25
2023-05-04T22:40:18.116Z,57.51
2023-05-04T22:42:47.536Z,57.42
2023-05-04T22:45:14.918Z,58.02
2023-05-04T22:47:42.094Z,58.18
2023-05-04T22:50:09.555Z,57.39
2023-05-04T22:52:37.087Z,57.72
2023-05-04T22:55:04.069Z,58.29
2023-05-04T22:57:30.646Z,57.62
2023-05-04T22:59:57.037Z,58.04
2023-05-04T23:02:23.726Z,58.01
2023-05-04T23:04:50.222Z,58.16
2023-05-04T23:07:16.584Z,58.33
2023-05-04T23:09:45.228Z,58.58
2023-05-04T23:12:12.500Z,58.72
2023-05-04T23:14:39.211Z,58.73
2023-05-04T23:17:05.908Z,58.65
2023-05-04T23:19:32.608Z,58.80
2023-05-04T23:21:59.364Z,58.51
2023-05-04T23:24:25.957Z,58.83
2023-05-04T23:26:52.455Z,58.71
2023-05-04T23:29:22.004Z,58.90
2023-05-04T23:31:48.359Z,58.97
2023-05-04T23:34:14.753Z,59.31
2023-05-04T23:36:41.116Z,58.90
2023-05-04T23:39:08.374Z,59.10
2023-05-04T23:41:35.078Z,58.58
2023-05-04T23:44:01.818Z,59.59
2023-05-04T23:46:28.424Z,59.23
2023-05-04T23:48:54.946Z,59.28
2023-05-04T23:51:21.436Z,59.64
2023-05-04T23:53:47.831Z,59.62
2023-05-04T23:56:14.493Z,59.38
2023-05-04T23:58:41.639Z,59.59
